»·PEaware :: N520MP KASE-KSLC

N520MP :: KASE-KSLC

FLIGHT INFORMATION

Flight Status: Arrived
Operator: Privately registered:
United States
More flights under this callsign
Pilot: Manuel P. (9695)
Aircraft: BOMBARDIER BD-100 CHALLENGER 300
(CL30)
More flights by this aircraft type
Origin: KASE Aspen-Pitkin Co/Sardy
United States
Destination: KSLC Salt Lake City Intl
United States
More flights between these airports :: More routes between these airports
Route: +LINDZ8 JNC J12 HELPR LEEHY5
File this flight plan on PilotEdge
Remarks:
Altitude:
(Current/Filed)
36,000ft
Speed:
(Current/Filed)
400kts
Departed: 05-Oct-17 02:40 PM
Arrived: 05-Oct-17 03:30 PM
Distance/Time
Traveled:
252nm/0:50
Distance/Time
To Go:
Arrived

Flight Plot

Page will automatically refresh every two minutes.

Flight plan parsing failed; only flown route is shown


Map Options




Map Legend


Flown Route
Filed Route
Departure Airport
Arrival Airport
Navaid (VOR, NDB)
Fix

Horizontal Profiles

Position Reports

Time Latitude Longitude Heading Altitude Ground
Speed
05-Oct-17 14:17 39.225518 -106.867996 251 7844ft 0kts
05-Oct-17 14:18 39.225518 -106.867996 251 7844ft 0kts
05-Oct-17 14:19 39.225519 -106.867996 251 7844ft 0kts
05-Oct-17 14:20 39.225519 -106.867996 251 7844ft 0kts
05-Oct-17 14:21 39.225519 -106.867996 251 7844ft 0kts
05-Oct-17 14:22 39.225519 -106.867996 251 7844ft 0kts
05-Oct-17 14:23 39.223301 -106.866355 251 7844ft 0kts
05-Oct-17 14:24 39.223301 -106.866355 251 7844ft 0kts
05-Oct-17 14:25 39.223301 -106.866355 251 7844ft 0kts
05-Oct-17 14:26 39.223301 -106.866355 251 7844ft 0kts
05-Oct-17 14:27 39.223301 -106.866355 251 7844ft 0kts
05-Oct-17 14:28 39.223301 -106.866355 251 7844ft 0kts
05-Oct-17 14:29 39.223301 -106.866355 251 7844ft 0kts
05-Oct-17 14:30 39.223301 -106.866355 251 7844ft 0kts
05-Oct-17 14:31 39.223301 -106.866355 251 7844ft 0kts
05-Oct-17 14:32 39.223301 -106.866355 251 7844ft 0kts
05-Oct-17 14:33 39.223301 -106.866355 251 7844ft 0kts
05-Oct-17 14:34 39.223301 -106.866355 251 7844ft 0kts
05-Oct-17 14:35 39.223301 -106.866355 251 7844ft 0kts
05-Oct-17 14:36 39.223301 -106.866355 251 7844ft 0kts
05-Oct-17 14:37 39.223301 -106.866355 251 7844ft 0kts
05-Oct-17 14:38 39.223301 -106.866355 251 7844ft 0kts
05-Oct-17 14:39 39.223301 -106.866355 251 7844ft 0kts
05-Oct-17 14:40 39.223093 -106.866947 232 7843ft 2kts
05-Oct-17 14:41 39.220635 -106.866449 159 7844ft 12kts
05-Oct-17 14:42 39.216890 -106.864708 161 7843ft 15kts
05-Oct-17 14:43 39.215196 -106.865050 338 7844ft 19kts
05-Oct-17 14:44 39.251954 -106.875741 351 9204ft 196kts
05-Oct-17 14:45 39.280596 -106.936869 282 11862ft 264kts
05-Oct-17 14:46 39.308475 -107.018382 283 13878ft 317kts
05-Oct-17 14:47 39.359516 -107.115004 309 16204ft 347kts
05-Oct-17 14:48 39.367893 -107.232795 259 18801ft 352kts
05-Oct-17 14:49 39.346744 -107.365310 256 21023ft 387kts
05-Oct-17 14:50 39.316747 -107.525294 255 24510ft 388kts
05-Oct-17 14:51 39.295394 -107.634522 254 26933ft 384kts
05-Oct-17 14:52 39.268457 -107.770297 254 28745ft 401kts
05-Oct-17 14:53 39.240908 -107.908129 254 30536ft 394kts
05-Oct-17 14:54 39.213903 -108.042191 254 32283ft 383kts
05-Oct-17 14:55 39.187347 -108.173214 254 34302ft 377kts
05-Oct-17 14:56 39.161021 -108.302247 254 36004ft 374kts
05-Oct-17 14:57 39.134779 -108.430205 254 36011ft 371kts
05-Oct-17 14:58 39.108328 -108.558357 254 36009ft 371kts
05-Oct-17 14:59 39.082068 -108.684721 253 36023ft 372kts
05-Oct-17 15:00 39.074634 -108.816275 279 36019ft 385kts
05-Oct-17 15:01 39.121281 -108.942704 289 36019ft 395kts
05-Oct-17 15:02 39.171018 -109.067465 289 36017ft 395kts
05-Oct-17 15:03 39.221349 -109.193031 289 36016ft 396kts
05-Oct-17 15:04 39.271621 -109.318669 289 36014ft 396kts
05-Oct-17 15:05 39.321812 -109.444564 289 35990ft 396kts
05-Oct-17 15:06 39.371818 -109.570479 289 35984ft 396kts
05-Oct-17 15:07 39.421314 -109.695548 289 35893ft 386kts
05-Oct-17 15:08 39.470895 -109.821290 287 33779ft 405kts
05-Oct-17 15:09 39.521783 -109.951213 287 31314ft 409kts
05-Oct-17 15:10 39.573639 -110.084195 288 28826ft 419kts
05-Oct-17 15:11 39.625919 -110.218727 289 26335ft 421kts
05-Oct-17 15:12 39.677695 -110.352398 290 24063ft 406kts
05-Oct-17 15:13 39.725827 -110.477145 290 22430ft 386kts
05-Oct-17 15:14 39.774699 -110.604775 291 19939ft 405kts
05-Oct-17 15:15 39.821502 -110.727023 291 17482ft 368kts
05-Oct-17 15:16 39.866520 -110.845212 292 15895ft 366kts
05-Oct-17 15:17 39.911217 -110.963068 292 15892ft 358kts
05-Oct-17 15:18 39.956570 -111.076074 293 15891ft 349kts
05-Oct-17 15:19 39.997214 -111.189315 295 15888ft 342kts
05-Oct-17 15:20 40.039305 -111.302358 292 15953ft 368kts
05-Oct-17 15:21 40.084187 -111.423616 292 15957ft 384kts
05-Oct-17 15:22 40.129174 -111.544863 292 15968ft 380kts
05-Oct-17 15:23 40.174067 -111.665973 294 15960ft 373kts
05-Oct-17 15:24 40.242507 -111.766340 310 13247ft 363kts
05-Oct-17 15:25 40.313005 -111.852825 320 11385ft 358kts
05-Oct-17 15:26 40.382402 -111.920728 341 10930ft 267kts
05-Oct-17 15:27 40.449796 -111.936091 344 9993ft 235kts
05-Oct-17 15:28 40.511821 -111.953481 348 9489ft 237kts
05-Oct-17 15:29 40.571892 -111.961063 3 8279ft 210kts
05-Oct-17 15:30 40.627014 -111.959144 357 7227ft 179kts
05-Oct-17 15:31 40.670075 -111.961472 355 6194ft 145kts
05-Oct-17 15:32 40.710406 -111.965638 355 5518ft 148kts
05-Oct-17 15:33 40.751360 -111.970566 353 4696ft 147kts
05-Oct-17 15:34 40.784295 -111.974275 355 4233ft 23kts
05-Oct-17 15:35 40.785829 -111.973509 102 4233ft 5kts
05-Oct-17 15:36 40.785565 -111.969186 76 4234ft 17kts
05-Oct-17 15:37 40.786718 -111.962427 91 4234ft 13kts
05-Oct-17 15:38 40.783407 -111.960071 179 4234ft 24kts
05-Oct-17 15:39 40.778546 -111.959258 160 4233ft 11kts
05-Oct-17 15:40 40.776744 -111.958805 178 4233ft 0kts

Navigation Log

Ident Type
Flight plan parsing failed, navigation log unavailable